sensor_id;sensor_type;location;lat;lon;timestamp;pressure;altitude;pressure_sealevel;temperature;humidity
56070;BME280;41944;52.078;-0.058;2022-08-23T00:00:42;100974.02;;;22.04;78.77
56070;BME280;41944;52.078;-0.058;2022-08-23T00:03:10;100972.57;;;22.02;79.00
56070;BME280;41944;52.078;-0.058;2022-08-23T00:05:37;100966.92;;;21.89;79.90
56070;BME280;41944;52.078;-0.058;2022-08-23T00:08:05;100965.38;;;21.91;80.22
56070;BME280;41944;52.078;-0.058;2022-08-23T00:10:32;100963.25;;;21.83;80.90
56070;BME280;41944;52.078;-0.058;2022-08-23T00:12:59;100960.13;;;21.83;81.07
56070;BME280;41944;52.078;-0.058;2022-08-23T00:15:26;100959.09;;;22.02;79.58
56070;BME280;41944;52.078;-0.058;2022-08-23T00:17:54;100959.41;;;21.98;80.50
56070;BME280;41944;52.078;-0.058;2022-08-23T00:20:20;100959.19;;;21.99;80.64
56070;BME280;41944;52.078;-0.058;2022-08-23T00:22:47;100959.55;;;21.85;82.20
56070;BME280;41944;52.078;-0.058;2022-08-23T00:25:14;100961.32;;;21.74;82.97
56070;BME280;41944;52.078;-0.058;2022-08-23T00:27:41;100958.71;;;21.70;83.40
56070;BME280;41944;52.078;-0.058;2022-08-23T00:30:10;100959.63;;;21.71;83.25
56070;BME280;41944;52.078;-0.058;2022-08-23T00:32:38;100961.38;;;21.56;84.02
56070;BME280;41944;52.078;-0.058;2022-08-23T00:35:09;100966.23;;;21.58;83.91
56070;BME280;41944;52.078;-0.058;2022-08-23T00:37:37;100967.62;;;21.56;84.07
56070;BME280;41944;52.078;-0.058;2022-08-23T00:40:08;100966.99;;;21.67;83.35
56070;BME280;41944;52.078;-0.058;2022-08-23T00:42:40;100966.38;;;21.73;83.11
56070;BME280;41944;52.078;-0.058;2022-08-23T00:45:09;100966.04;;;21.78;82.88
56070;BME280;41944;52.078;-0.058;2022-08-23T00:47:39;100965.41;;;21.85;82.80
56070;BME280;41944;52.078;-0.058;2022-08-23T00:50:14;100969.61;;;21.78;83.58
56070;BME280;41944;52.078;-0.058;2022-08-23T00:52:57;100971.57;;;21.83;83.50
56070;BME280;41944;52.078;-0.058;2022-08-23T00:55:29;100970.55;;;21.82;83.70
56070;BME280;41944;52.078;-0.058;2022-08-23T00:57:58;100974.94;;;21.81;83.90
56070;BME280;41944;52.078;-0.058;2022-08-23T01:00:27;100975.06;;;21.93;82.54
56070;BME280;41944;52.078;-0.058;2022-08-23T01:02:54;100969.85;;;21.78;84.82
56070;BME280;41944;52.078;-0.058;2022-08-23T01:05:24;100967.49;;;21.74;84.82
56070;BME280;41944;52.078;-0.058;2022-08-23T01:07:55;100970.56;;;21.65;85.17
56070;BME280;41944;52.078;-0.058;2022-08-23T01:10:27;100967.67;;;21.66;84.39
56070;BME280;41944;52.078;-0.058;2022-08-23T01:12:58;100969.29;;;21.52;85.90
56070;BME280;41944;52.078;-0.058;2022-08-23T01:15:31;100973.22;;;21.62;85.52
56070;BME280;41944;52.078;-0.058;2022-08-23T01:18:03;100965.73;;;21.65;84.92
56070;BME280;41944;52.078;-0.058;2022-08-23T01:20:36;100961.60;;;21.61;85.38
56070;BME280;41944;52.078;-0.058;2022-08-23T01:23:17;100952.31;;;21.67;84.60
56070;BME280;41944;52.078;-0.058;2022-08-23T01:25:45;100951.51;;;21.64;84.84
56070;BME280;41944;52.078;-0.058;2022-08-23T01:28:12;100953.06;;;21.70;83.88
56070;BME280;41944;52.078;-0.058;2022-08-23T01:30:41;100951.56;;;21.58;84.67
56070;BME280;41944;52.078;-0.058;2022-08-23T01:33:09;100952.75;;;21.55;84.74
56070;BME280;41944;52.078;-0.058;2022-08-23T01:35:39;100959.09;;;21.66;82.27
56070;BME280;41944;52.078;-0.058;2022-08-23T01:38:08;100956.41;;;21.60;83.17
56070;BME280;41944;52.078;-0.058;2022-08-23T01:40:38;100954.07;;;21.73;81.53
56070;BME280;41944;52.078;-0.058;2022-08-23T01:43:05;100953.55;;;21.81;80.07
56070;BME280;41944;52.078;-0.058;2022-08-23T01:45:33;100952.98;;;21.80;80.12
56070;BME280;41944;52.078;-0.058;2022-08-23T01:48:02;100951.57;;;21.80;80.25
56070;BME280;41944;52.078;-0.058;2022-08-23T01:50:31;100954.69;;;21.63;80.68
56070;BME280;41944;52.078;-0.058;2022-08-23T01:52:59;100953.94;;;21.64;80.20
56070;BME280;41944;52.078;-0.058;2022-08-23T01:55:27;100951.81;;;21.49;80.96
56070;BME280;41944;52.078;-0.058;2022-08-23T01:57:56;100952.53;;;21.76;78.89
56070;BME280;41944;52.078;-0.058;2022-08-23T02:00:27;100954.94;;;21.70;79.77
56070;BME280;41944;52.078;-0.058;2022-08-23T02:02:54;100958.40;;;21.79;78.74
56070;BME280;41944;52.078;-0.058;2022-08-23T02:05:22;100961.31;;;21.72;79.62
56070;BME280;41944;52.078;-0.058;2022-08-23T02:07:49;100961.79;;;21.63;80.02
56070;BME280;41944;52.078;-0.058;2022-08-23T02:10:16;100961.74;;;21.66;79.74
56070;BME280;41944;52.078;-0.058;2022-08-23T02:12:43;100965.15;;;21.61;80.20
56070;BME280;41944;52.078;-0.058;2022-08-23T02:15:11;100968.00;;;21.45;80.92
56070;BME280;41944;52.078;-0.058;2022-08-23T02:17:39;100973.59;;;21.40;81.30
56070;BME280;41944;52.078;-0.058;2022-08-23T02:20:07;100969.39;;;21.50;80.76
56070;BME280;41944;52.078;-0.058;2022-08-23T02:22:35;100976.57;;;21.32;81.75
56070;BME280;41944;52.078;-0.058;2022-08-23T02:25:03;100974.87;;;21.47;80.73
56070;BME280;41944;52.078;-0.058;2022-08-23T02:27:30;100975.72;;;21.56;80.50
56070;BME280;41944;52.078;-0.058;2022-08-23T02:29:57;100976.83;;;21.56;81.14
56070;BME280;41944;52.078;-0.058;2022-08-23T02:32:24;100976.15;;;21.44;82.09
56070;BME280;41944;52.078;-0.058;2022-08-23T02:34:52;100982.10;;;21.31;83.00
56070;BME280;41944;52.078;-0.058;2022-08-23T02:37:19;100982.47;;;21.26;83.36
56070;BME280;41944;52.078;-0.058;2022-08-23T02:39:45;100979.24;;;21.31;83.24
56070;BME280;41944;52.078;-0.058;2022-08-23T02:42:12;100974.47;;;21.32;82.64
56070;BME280;41944;52.078;-0.058;2022-08-23T02:44:39;100977.81;;;21.30;83.38
56070;BME280;41944;52.078;-0.058;2022-08-23T02:47:06;100977.88;;;21.19;83.96
56070;BME280;41944;52.078;-0.058;2022-08-23T02:49:33;100977.41;;;21.09;84.98
56070;BME280;41944;52.078;-0.058;2022-08-23T02:52:01;100978.13;;;21.06;85.24
56070;BME280;41944;52.078;-0.058;2022-08-23T02:54:28;100977.94;;;20.97;85.68
56070;BME280;41944;52.078;-0.058;2022-08-23T02:56:55;100975.98;;;21.07;85.50
56070;BME280;41944;52.078;-0.058;2022-08-23T02:59:22;100973.94;;;21.12;85.08
56070;BME280;41944;52.078;-0.058;2022-08-23T03:01:49;100981.06;;;21.07;85.37
56070;BME280;41944;52.078;-0.058;2022-08-23T03:04:16;100981.86;;;20.94;86.12
56070;BME280;41944;52.078;-0.058;2022-08-23T03:06:42;100984.82;;;20.88;86.56
56070;BME280;41944;52.078;-0.058;2022-08-23T03:09:09;100989.41;;;20.81;86.81
56070;BME280;41944;52.078;-0.058;2022-08-23T03:11:40;100989.31;;;20.85;86.70
56070;BME280;41944;52.078;-0.058;2022-08-23T03:14:08;100993.45;;;20.83;86.74
56070;BME280;41944;52.078;-0.058;2022-08-23T03:16:35;100996.73;;;20.74;87.16
56070;BME280;41944;52.078;-0.058;2022-08-23T03:19:02;100996.36;;;20.65;87.66
56070;BME280;41944;52.078;-0.058;2022-08-23T03:21:29;100991.70;;;20.62;87.88
56070;BME280;41944;52.078;-0.058;2022-08-23T03:23:56;100990.58;;;20.62;88.14
56070;BME280;41944;52.078;-0.058;2022-08-23T03:26:23;100990.50;;;20.73;87.73
56070;BME280;41944;52.078;-0.058;2022-08-23T03:28:50;100991.74;;;20.69;87.83
56070;BME280;41944;52.078;-0.058;2022-08-23T03:31:17;100991.24;;;20.72;87.62
56070;BME280;41944;52.078;-0.058;2022-08-23T03:33:44;100988.66;;;20.85;86.96
56070;BME280;41944;52.078;-0.058;2022-08-23T03:36:12;100986.50;;;20.65;88.02
56070;BME280;41944;52.078;-0.058;2022-08-23T03:38:40;100982.68;;;20.71;87.80
56070;BME280;41944;52.078;-0.058;2022-08-23T03:41:08;100979.24;;;20.94;85.86
56070;BME280;41944;52.078;-0.058;2022-08-23T03:43:35;100976.32;;;20.91;86.47
56070;BME280;41944;52.078;-0.058;2022-08-23T03:46:04;100979.41;;;21.05;84.87
56070;BME280;41944;52.078;-0.058;2022-08-23T03:48:32;100978.55;;;20.94;86.76
56070;BME280;41944;52.078;-0.058;2022-08-23T03:50:59;100977.85;;;20.67;88.51
56070;BME280;41944;52.078;-0.058;2022-08-23T03:53:27;100976.04;;;20.64;88.95
56070;BME280;41944;52.078;-0.058;2022-08-23T03:55:55;100976.77;;;20.52;89.51
56070;BME280;41944;52.078;-0.058;2022-08-23T03:58:22;100973.27;;;20.43;90.12
56070;BME280;41944;52.078;-0.058;2022-08-23T04:00:49;100967.42;;;20.28;90.91
56070;BME280;41944;52.078;-0.058;2022-08-23T04:03:16;100967.28;;;20.29;90.98
56070;BME280;41944;52.078;-0.058;2022-08-23T04:05:43;100970.04;;;20.39;90.83
56070;BME280;41944;52.078;-0.058;2022-08-23T04:08:10;100967.22;;;20.20;91.25
56070;BME280;41944;52.078;-0.058;2022-08-23T04:10:38;100962.77;;;20.18;91.18
56070;BME280;41944;52.078;-0.058;2022-08-23T04:13:05;100961.78;;;20.20;90.91
56070;BME280;41944;52.078;-0.058;2022-08-23T04:15:32;100962.59;;;20.16;90.82
56070;BME280;41944;52.078;-0.058;2022-08-23T04:17:59;100962.18;;;20.05;91.27
56070;BME280;41944;52.078;-0.058;2022-08-23T04:20:26;100967.51;;;20.01;91.44
56070;BME280;41944;52.078;-0.058;2022-08-23T04:22:54;100970.75;;;19.98;91.56
56070;BME280;41944;52.078;-0.058;2022-08-23T04:25:21;100972.11;;;19.99;91.34
56070;BME280;41944;52.078;-0.058;2022-08-23T04:27:48;100973.27;;;20.08;90.87
56070;BME280;41944;52.078;-0.058;2022-08-23T04:30:15;100972.55;;;20.13;90.38
56070;BME280;41944;52.078;-0.058;2022-08-23T04:32:42;100973.07;;;20.07;90.32
56070;BME280;41944;52.078;-0.058;2022-08-23T04:35:09;100976.24;;;20.05;90.35
56070;BME280;41944;52.078;-0.058;2022-08-23T04:37:36;100971.96;;;20.13;89.88
56070;BME280;41944;52.078;-0.058;2022-08-23T04:40:03;100974.79;;;20.19;89.43
56070;BME280;41944;52.078;-0.058;2022-08-23T04:42:30;100975.61;;;20.20;89.13
56070;BME280;41944;52.078;-0.058;2022-08-23T04:44:57;100975.78;;;20.14;89.13
56070;BME280;41944;52.078;-0.058;2022-08-23T04:47:24;100980.10;;;20.18;88.84
56070;BME280;41944;52.078;-0.058;2022-08-23T04:49:51;100981.11;;;20.20;88.74
56070;BME280;41944;52.078;-0.058;2022-08-23T04:52:17;100985.54;;;20.21;88.73
56070;BME280;41944;52.078;-0.058;2022-08-23T04:54:44;100993.57;;;20.31;88.22
56070;BME280;41944;52.078;-0.058;2022-08-23T04:57:11;100992.12;;;20.25;88.81
56070;BME280;41944;52.078;-0.058;2022-08-23T04:59:38;100993.58;;;20.38;88.22
56070;BME280;41944;52.078;-0.058;2022-08-23T05:02:05;100992.72;;;20.43;88.04
56070;BME280;41944;52.078;-0.058;2022-08-23T05:04:32;100995.78;;;20.47;88.10
56070;BME280;41944;52.078;-0.058;2022-08-23T05:06:59;101000.21;;;20.53;87.84
56070;BME280;41944;52.078;-0.058;2022-08-23T05:09:25;101002.41;;;20.65;87.34
56070;BME280;41944;52.078;-0.058;2022-08-23T05:11:52;101001.52;;;20.59;87.93
56070;BME280;41944;52.078;-0.058;2022-08-23T05:14:19;101003.75;;;20.81;86.37
56070;BME280;41944;52.078;-0.058;2022-08-23T05:16:46;101004.71;;;20.69;87.50
56070;BME280;41944;52.078;-0.058;2022-08-23T05:19:13;101009.76;;;20.83;86.53
56070;BME280;41944;52.078;-0.058;2022-08-23T05:21:40;101013.22;;;20.86;86.74
56070;BME280;41944;52.078;-0.058;2022-08-23T05:24:07;101018.00;;;20.81;87.04
56070;BME280;41944;52.078;-0.058;2022-08-23T05:26:33;101020.47;;;20.75;87.13
56070;BME280;41944;52.078;-0.058;2022-08-23T05:29:00;101019.45;;;20.88;85.94
56070;BME280;41944;52.078;-0.058;2022-08-23T05:31:28;101021.25;;;21.03;85.00
56070;BME280;41944;52.078;-0.058;2022-08-23T05:33:56;101022.35;;;21.08;85.41
56070;BME280;41944;52.078;-0.058;2022-08-23T05:36:23;101024.47;;;21.05;85.70
56070;BME280;41944;52.078;-0.058;2022-08-23T05:38:50;101024.21;;;21.04;86.00
56070;BME280;41944;52.078;-0.058;2022-08-23T05:41:17;101026.66;;;20.90;86.91
56070;BME280;41944;52.078;-0.058;2022-08-23T05:43:44;101029.41;;;20.89;87.23
56070;BME280;41944;52.078;-0.058;2022-08-23T05:46:14;101030.77;;;20.88;87.35
56070;BME280;41944;52.078;-0.058;2022-08-23T05:48:42;101035.11;;;20.99;86.75
56070;BME280;41944;52.078;-0.058;2022-08-23T05:51:12;101040.63;;;21.07;86.33
56070;BME280;41944;52.078;-0.058;2022-08-23T05:53:41;101044.61;;;21.10;86.24
56070;BME280;41944;52.078;-0.058;2022-08-23T05:56:11;101044.76;;;21.21;85.76
56070;BME280;41944;52.078;-0.058;2022-08-23T05:58:38;101046.95;;;21.37;84.93
56070;BME280;41944;52.078;-0.058;2022-08-23T06:01:05;101048.14;;;21.36;84.93
56070;BME280;41944;52.078;-0.058;2022-08-23T06:03:32;101054.24;;;21.38;85.24
56070;BME280;41944;52.078;-0.058;2022-08-23T06:06:00;101054.33;;;21.24;85.93
56070;BME280;41944;52.078;-0.058;2022-08-23T06:08:27;101056.34;;;21.36;85.03
56070;BME280;41944;52.078;-0.058;2022-08-23T06:11:03;101056.05;;;21.45;84.45
56070;BME280;41944;52.078;-0.058;2022-08-23T06:13:31;101056.79;;;21.59;83.16
56070;BME280;41944;52.078;-0.058;2022-08-23T06:15:58;101057.00;;;21.63;82.80
56070;BME280;41944;52.078;-0.058;2022-08-23T06:18:26;101050.83;;;21.50;83.60
56070;BME280;41944;52.078;-0.058;2022-08-23T06:21:02;101046.70;;;21.66;82.94
56070;BME280;41944;52.078;-0.058;2022-08-23T06:23:30;101045.91;;;21.67;83.03
56070;BME280;41944;52.078;-0.058;2022-08-23T06:25:58;101045.04;;;21.67;83.12
56070;BME280;41944;52.078;-0.058;2022-08-23T06:28:27;101041.29;;;21.72;82.86
56070;BME280;41944;52.078;-0.058;2022-08-23T06:30:55;101039.39;;;21.70;82.96
56070;BME280;41944;52.078;-0.058;2022-08-23T06:33:23;101045.15;;;21.76;82.58
56070;BME280;41944;52.078;-0.058;2022-08-23T06:36:00;101045.01;;;21.74;82.86
56070;BME280;41944;52.078;-0.058;2022-08-23T06:38:28;101046.29;;;21.76;82.87
56070;BME280;41944;52.078;-0.058;2022-08-23T06:41:00;101042.93;;;21.83;82.39
56070;BME280;41944;52.078;-0.058;2022-08-23T06:43:27;101045.54;;;21.98;81.83
56070;BME280;41944;52.078;-0.058;2022-08-23T06:45:54;101050.74;;;22.10;81.08
56070;BME280;41944;52.078;-0.058;2022-08-23T06:48:22;101057.69;;;21.96;82.05
56070;BME280;41944;52.078;-0.058;2022-08-23T06:50:49;101050.32;;;22.01;81.30
56070;BME280;41944;52.078;-0.058;2022-08-23T06:53:15;101051.11;;;22.01;81.83
56070;BME280;41944;52.078;-0.058;2022-08-23T06:55:42;101052.57;;;22.09;81.71
56070;BME280;41944;52.078;-0.058;2022-08-23T06:58:09;101052.92;;;22.11;81.62
56070;BME280;41944;52.078;-0.058;2022-08-23T07:00:36;101054.05;;;22.13;81.93
56070;BME280;41944;52.078;-0.058;2022-08-23T07:03:03;101052.84;;;22.22;81.19
56070;BME280;41944;52.078;-0.058;2022-08-23T07:05:30;101052.08;;;22.38;80.78
56070;BME280;41944;52.078;-0.058;2022-08-23T07:07:56;101055.16;;;22.44;80.31
56070;BME280;41944;52.078;-0.058;2022-08-23T07:10:23;101053.65;;;22.48;80.39
56070;BME280;41944;52.078;-0.058;2022-08-23T07:12:50;101051.52;;;22.70;79.38
56070;BME280;41944;52.078;-0.058;2022-08-23T07:15:17;101052.90;;;22.79;78.22
56070;BME280;41944;52.078;-0.058;2022-08-23T07:17:44;101052.78;;;22.78;78.31
56070;BME280;41944;52.078;-0.058;2022-08-23T07:20:11;101054.77;;;22.84;78.65
56070;BME280;41944;52.078;-0.058;2022-08-23T07:22:38;101060.93;;;22.89;78.58
56070;BME280;41944;52.078;-0.058;2022-08-23T07:25:05;101064.20;;;22.99;77.51
56070;BME280;41944;52.078;-0.058;2022-08-23T07:27:32;101064.05;;;23.04;77.06
56070;BME280;41944;52.078;-0.058;2022-08-23T07:29:59;101070.18;;;23.07;77.24
56070;BME280;41944;52.078;-0.058;2022-08-23T07:32:27;101072.98;;;23.12;76.96
56070;BME280;41944;52.078;-0.058;2022-08-23T07:34:55;101074.66;;;23.19;77.13
56070;BME280;41944;52.078;-0.058;2022-08-23T07:37:21;101078.01;;;23.32;76.19
56070;BME280;41944;52.078;-0.058;2022-08-23T07:39:48;101079.81;;;23.40;76.31
56070;BME280;41944;52.078;-0.058;2022-08-23T07:42:15;101078.64;;;23.57;75.21
56070;BME280;41944;52.078;-0.058;2022-08-23T07:44:42;101076.62;;;23.71;75.25
56070;BME280;41944;52.078;-0.058;2022-08-23T07:47:09;101070.93;;;23.61;75.47
56070;BME280;41944;52.078;-0.058;2022-08-23T07:49:35;101070.42;;;23.79;74.48
56070;BME280;41944;52.078;-0.058;2022-08-23T07:52:03;101072.60;;;23.83;72.84
56070;BME280;41944;52.078;-0.058;2022-08-23T07:54:30;101072.52;;;23.85;73.36
56070;BME280;41944;52.078;-0.058;2022-08-23T07:56:57;101075.15;;;23.77;73.51
56070;BME280;41944;52.078;-0.058;2022-08-23T07:59:24;101078.61;;;23.84;72.86
56070;BME280;41944;52.078;-0.058;2022-08-23T08:01:51;101082.19;;;23.73;72.39
56070;BME280;41944;52.078;-0.058;2022-08-23T08:04:18;101081.04;;;23.65;72.63
56070;BME280;41944;52.078;-0.058;2022-08-23T08:06:47;101080.75;;;23.52;73.50
56070;BME280;41944;52.078;-0.058;2022-08-23T08:09:15;101082.61;;;23.26;74.25
56070;BME280;41944;52.078;-0.058;2022-08-23T08:11:44;101087.35;;;23.21;75.03
56070;BME280;41944;52.078;-0.058;2022-08-23T08:14:12;101087.20;;;23.37;73.03
56070;BME280;41944;52.078;-0.058;2022-08-23T08:16:42;101096.77;;;23.47;70.87
56070;BME280;41944;52.078;-0.058;2022-08-23T08:19:11;101096.76;;;23.51;70.53
56070;BME280;41944;52.078;-0.058;2022-08-23T08:21:39;101096.73;;;23.46;71.14
56070;BME280;41944;52.078;-0.058;2022-08-23T08:24:08;101096.41;;;23.67;70.68
56070;BME280;41944;52.078;-0.058;2022-08-23T08:26:35;101104.76;;;23.88;70.21
56070;BME280;41944;52.078;-0.058;2022-08-23T08:29:03;101107.80;;;24.15;69.86
56070;BME280;41944;52.078;-0.058;2022-08-23T08:31:31;101107.01;;;24.49;67.13
56070;BME280;41944;52.078;-0.058;2022-08-23T08:33:57;101111.00;;;24.38;67.88
56070;BME280;41944;52.078;-0.058;2022-08-23T08:36:31;101108.75;;;24.46;67.25
56070;BME280;41944;52.078;-0.058;2022-08-23T08:38:58;101108.21;;;24.59;66.54
56070;BME280;41944;52.078;-0.058;2022-08-23T08:41:38;101109.37;;;24.78;65.75
56070;BME280;41944;52.078;-0.058;2022-08-23T08:44:13;101109.73;;;24.90;65.21
56070;BME280;41944;52.078;-0.058;2022-08-23T08:46:46;101112.78;;;24.77;65.53
56070;BME280;41944;52.078;-0.058;2022-08-23T08:49:17;101111.67;;;24.70;65.62
56070;BME280;41944;52.078;-0.058;2022-08-23T08:51:54;101115.88;;;24.36;66.73
56070;BME280;41944;52.078;-0.058;2022-08-23T08:54:25;101114.87;;;24.48;66.11
56070;BME280;41944;52.078;-0.058;2022-08-23T08:56:55;101113.61;;;24.45;65.98
56070;BME280;41944;52.078;-0.058;2022-08-23T08:59:25;101108.98;;;24.43;65.00
56070;BME280;41944;52.078;-0.058;2022-08-23T09:01:53;101109.93;;;24.26;65.53
56070;BME280;41944;52.078;-0.058;2022-08-23T09:04:20;101110.43;;;24.27;65.31
56070;BME280;41944;52.078;-0.058;2022-08-23T09:06:52;101101.42;;;24.44;65.38
56070;BME280;41944;52.078;-0.058;2022-08-23T09:09:34;101101.15;;;24.75;63.95
56070;BME280;41944;52.078;-0.058;2022-08-23T09:12:14;101102.00;;;24.92;62.94
56070;BME280;41944;52.078;-0.058;2022-08-23T09:14:55;101101.85;;;25.08;63.66
56070;BME280;41944;52.078;-0.058;2022-08-23T09:17:33;101102.92;;;25.47;61.09
56070;BME280;41944;52.078;-0.058;2022-08-23T09:20:05;101094.89;;;25.53;60.85
56070;BME280;41944;52.078;-0.058;2022-08-23T09:22:36;101089.63;;;25.63;60.30
56070;BME280;41944;52.078;-0.058;2022-08-23T09:25:07;101086.74;;;25.74;60.31
56070;BME280;41944;52.078;-0.058;2022-08-23T09:27:35;101089.68;;;25.90;59.49
56070;BME280;41944;52.078;-0.058;2022-08-23T09:30:04;101099.19;;;26.11;59.04
56070;BME280;41944;52.078;-0.058;2022-08-23T09:32:34;101097.81;;;26.20;59.15
56070;BME280;41944;52.078;-0.058;2022-08-23T09:35:08;101097.33;;;26.34;58.42
56070;BME280;41944;52.078;-0.058;2022-08-23T09:37:48;101099.20;;;26.27;58.38
56070;BME280;41944;52.078;-0.058;2022-08-23T09:40:19;101096.17;;;26.19;58.79
56070;BME280;41944;52.078;-0.058;2022-08-23T09:43:09;101096.40;;;26.09;58.81
56070;BME280;41944;52.078;-0.058;2022-08-23T09:45:40;101095.60;;;26.09;58.89
56070;BME280;41944;52.078;-0.058;2022-08-23T09:48:12;101093.39;;;26.10;58.12
56070;BME280;41944;52.078;-0.058;2022-08-23T09:50:43;101093.38;;;26.11;58.34
56070;BME280;41944;52.078;-0.058;2022-08-23T09:53:15;101090.53;;;26.10;57.85
56070;BME280;41944;52.078;-0.058;2022-08-23T09:55:52;101089.02;;;26.14;57.85
56070;BME280;41944;52.078;-0.058;2022-08-23T09:58:25;101084.61;;;26.14;57.89
56070;BME280;41944;52.078;-0.058;2022-08-23T10:01:08;101075.25;;;26.39;57.44
56070;BME280;41944;52.078;-0.058;2022-08-23T10:03:36;101073.28;;;26.45;57.25
56070;BME280;41944;52.078;-0.058;2022-08-23T10:06:04;101075.81;;;26.55;57.14
56070;BME280;41944;52.078;-0.058;2022-08-23T10:08:34;101073.37;;;26.65;56.58
56070;BME280;41944;52.078;-0.058;2022-08-23T10:11:07;101073.55;;;26.74;56.11
56070;BME280;41944;52.078;-0.058;2022-08-23T10:13:41;101074.55;;;26.88;55.88
56070;BME280;41944;52.078;-0.058;2022-08-23T10:16:14;101066.82;;;26.87;55.68
56070;BME280;41944;52.078;-0.058;2022-08-23T10:18:52;101066.43;;;26.97;55.17
56070;BME280;41944;52.078;-0.058;2022-08-23T10:21:31;101060.59;;;27.02;54.99
56070;BME280;41944;52.078;-0.058;2022-08-23T10:24:14;101058.40;;;27.13;54.91
56070;BME280;41944;52.078;-0.058;2022-08-23T10:26:50;101057.01;;;27.31;54.73
56070;BME280;41944;52.078;-0.058;2022-08-23T10:29:31;101060.13;;;27.40;54.13
56070;BME280;41944;52.078;-0.058;2022-08-23T10:32:11;101063.24;;;27.51;53.84
56070;BME280;41944;52.078;-0.058;2022-08-23T10:34:54;101063.71;;;27.67;53.36
56070;BME280;41944;52.078;-0.058;2022-08-23T10:37:34;101070.69;;;27.60;53.78
56070;BME280;41944;52.078;-0.058;2022-08-23T10:40:10;101063.29;;;27.65;53.36
56070;BME280;41944;52.078;-0.058;2022-08-23T10:42:46;101060.79;;;27.69;53.44
56070;BME280;41944;52.078;-0.058;2022-08-23T10:45:24;101065.20;;;27.82;53.21
56070;BME280;41944;52.078;-0.058;2022-08-23T10:48:13;101067.57;;;28.06;52.75
56070;BME280;41944;52.078;-0.058;2022-08-23T10:50:47;101066.17;;;28.24;52.02
56070;BME280;41944;52.078;-0.058;2022-08-23T10:53:19;101065.87;;;28.32;51.96
56070;BME280;41944;52.078;-0.058;2022-08-23T10:55:51;101062.27;;;28.57;51.36
56070;BME280;41944;52.078;-0.058;2022-08-23T10:58:23;101065.74;;;28.68;51.16
56070;BME280;41944;52.078;-0.058;2022-08-23T11:00:52;101064.00;;;28.59;50.68
56070;BME280;41944;52.078;-0.058;2022-08-23T11:03:26;101062.37;;;28.50;50.98
56070;BME280;41944;52.078;-0.058;2022-08-23T11:06:41;101069.11;;;28.53;51.04
56070;BME280;41944;52.078;-0.058;2022-08-23T11:09:35;101067.58;;;28.27;51.72
56070;BME280;41944;52.078;-0.058;2022-08-23T11:12:20;101070.53;;;28.46;51.08
56070;BME280;41944;52.078;-0.058;2022-08-23T11:15:02;101081.05;;;28.46;51.04
56070;BME280;41944;52.078;-0.058;2022-08-23T11:17:37;101081.92;;;28.50;50.77
56070;BME280;41944;52.078;-0.058;2022-08-23T11:20:10;101086.65;;;28.36;51.71
56070;BME280;41944;52.078;-0.058;2022-08-23T11:23:11;101085.77;;;28.56;51.08
56070;BME280;41944;52.078;-0.058;2022-08-23T11:25:41;101084.25;;;28.59;50.33
56070;BME280;41944;52.078;-0.058;2022-08-23T11:28:43;101085.15;;;28.86;50.15
56070;BME280;41944;52.078;-0.058;2022-08-23T11:31:22;101081.60;;;29.05;49.74
56070;BME280;41944;52.078;-0.058;2022-08-23T11:33:57;101082.07;;;29.23;49.79
56070;BME280;41944;52.078;-0.058;2022-08-23T11:36:27;101078.06;;;29.04;49.85
56070;BME280;41944;52.078;-0.058;2022-08-23T11:39:07;101077.85;;;29.17;49.73
56070;BME280;41944;52.078;-0.058;2022-08-23T11:41:58;101069.42;;;29.14;49.90
56070;BME280;41944;52.078;-0.058;2022-08-23T11:44:34;101067.82;;;29.26;49.79
56070;BME280;41944;52.078;-0.058;2022-08-23T11:47:03;101068.29;;;29.12;49.67
56070;BME280;41944;52.078;-0.058;2022-08-23T11:50:27;101067.87;;;29.23;50.01
56070;BME280;41944;52.078;-0.058;2022-08-23T11:53:12;101075.24;;;29.28;49.73
56070;BME280;41944;52.078;-0.058;2022-08-23T11:56:08;101076.42;;;29.43;49.56
56070;BME280;41944;52.078;-0.058;2022-08-23T11:58:56;101081.67;;;29.50;49.24
56070;BME280;41944;52.078;-0.058;2022-08-23T12:01:29;101078.32;;;29.59;49.49
56070;BME280;41944;52.078;-0.058;2022-08-23T12:04:01;101078.33;;;29.69;49.23
56070;BME280;41944;52.078;-0.058;2022-08-23T12:06:46;101078.71;;;29.70;48.65
56070;BME280;41944;52.078;-0.058;2022-08-23T12:09:52;101069.72;;;29.58;49.08
56070;BME280;41944;52.078;-0.058;2022-08-23T12:12:29;101071.86;;;29.39;49.54
56070;BME280;41944;52.078;-0.058;2022-08-23T12:14:59;101070.35;;;29.33;49.34
56070;BME280;41944;52.078;-0.058;2022-08-23T12:18:33;101076.92;;;29.20;49.05
56070;BME280;41944;52.078;-0.058;2022-08-23T12:21:03;101075.52;;;29.06;49.89
56070;BME280;41944;52.078;-0.058;2022-08-23T12:23:42;101079.55;;;29.04;49.94
56070;BME280;41944;52.078;-0.058;2022-08-23T12:26:18;101073.55;;;29.13;49.85
56070;BME280;41944;52.078;-0.058;2022-08-23T12:28:51;101071.01;;;29.19;49.78
56070;BME280;41944;52.078;-0.058;2022-08-23T12:31:26;101074.13;;;29.26;49.75
56070;BME280;41944;52.078;-0.058;2022-08-23T12:34:08;101076.18;;;29.21;49.70
56070;BME280;41944;52.078;-0.058;2022-08-23T12:36:44;101075.59;;;29.21;49.83
56070;BME280;41944;52.078;-0.058;2022-08-23T12:39:22;101072.59;;;29.34;49.59
56070;BME280;41944;52.078;-0.058;2022-08-23T12:41:54;101076.06;;;29.44;49.32
56070;BME280;41944;52.078;-0.058;2022-08-23T12:44:25;101069.35;;;29.35;49.86
56070;BME280;41944;52.078;-0.058;2022-08-23T12:46:53;101064.41;;;29.50;49.60
56070;BME280;41944;52.078;-0.058;2022-08-23T12:49:25;101061.49;;;29.78;48.84
56070;BME280;41944;52.078;-0.058;2022-08-23T12:51:55;101062.35;;;30.05;48.58
56070;BME280;41944;52.078;-0.058;2022-08-23T12:54:31;101065.02;;;30.24;47.30
56070;BME280;41944;52.078;-0.058;2022-08-23T12:56:59;101068.58;;;30.27;47.61
56070;BME280;41944;52.078;-0.058;2022-08-23T12:59:33;101067.76;;;30.23;47.56